sensor_id;sensor_type;location;lat;lon;timestamp;temperature;humidity
42965;DHT22;28604;51.204;22.552;2024-03-25T00:00:44;3.00;93.10
42965;DHT22;28604;51.204;22.552;2024-03-25T00:03:30;3.00;92.70
42965;DHT22;28604;51.204;22.552;2024-03-25T00:05:55;3.00;92.50
42965;DHT22;28604;51.204;22.552;2024-03-25T00:08:23;3.00;92.50
42965;DHT22;28604;51.204;22.552;2024-03-25T00:10:48;3.00;92.30
42965;DHT22;28604;51.204;22.552;2024-03-25T00:13:14;3.00;92.80
42965;DHT22;28604;51.204;22.552;2024-03-25T00:15:40;3.00;92.50
42965;DHT22;28604;51.204;22.552;2024-03-25T00:18:07;3.00;92.40
42965;DHT22;28604;51.204;22.552;2024-03-25T00:20:33;3.00;92.40
42965;DHT22;28604;51.204;22.552;2024-03-25T00:22:59;3.00;92.30
42965;DHT22;28604;51.204;22.552;2024-03-25T00:25:25;3.00;92.20
42965;DHT22;28604;51.204;22.552;2024-03-25T00:27:51;3.00;92.30
42965;DHT22;28604;51.204;22.552;2024-03-25T00:30:17;3.00;92.50
42965;DHT22;28604;51.204;22.552;2024-03-25T00:32:43;3.00;92.30
42965;DHT22;28604;51.204;22.552;2024-03-25T00:35:08;3.00;92.00
42965;DHT22;28604;51.204;22.552;2024-03-25T00:37:34;3.00;92.30
42965;DHT22;28604;51.204;22.552;2024-03-25T00:40:00;3.00;92.30
42965;DHT22;28604;51.204;22.552;2024-03-25T00:42:26;2.90;92.10
42965;DHT22;28604;51.204;22.552;2024-03-25T00:44:52;2.90;92.00
42965;DHT22;28604;51.204;22.552;2024-03-25T00:47:18;3.00;92.10
42965;DHT22;28604;51.204;22.552;2024-03-25T00:49:45;2.90;92.20
42965;DHT22;28604;51.204;22.552;2024-03-25T00:52:17;2.90;92.20
42965;DHT22;28604;51.204;22.552;2024-03-25T00:54:43;2.90;91.60
42965;DHT22;28604;51.204;22.552;2024-03-25T00:57:08;3.00;92.50
42965;DHT22;28604;51.204;22.552;2024-03-25T00:59:34;3.00;92.40
42965;DHT22;28604;51.204;22.552;2024-03-25T01:02:01;3.00;92.90
42965;DHT22;28604;51.204;22.552;2024-03-25T01:04:26;3.00;92.40
42965;DHT22;28604;51.204;22.552;2024-03-25T01:06:52;3.00;92.00
42965;DHT22;28604;51.204;22.552;2024-03-25T01:09:18;3.00;92.60
42965;DHT22;28604;51.204;22.552;2024-03-25T01:11:44;3.10;92.50
42965;DHT22;28604;51.204;22.552;2024-03-25T01:14:10;3.10;92.30
42965;DHT22;28604;51.204;22.552;2024-03-25T01:16:35;3.20;92.20
42965;DHT22;28604;51.204;22.552;2024-03-25T01:19:02;3.20;92.20
42965;DHT22;28604;51.204;22.552;2024-03-25T01:21:28;3.20;92.10
42965;DHT22;28604;51.204;22.552;2024-03-25T01:23:54;3.20;92.30
42965;DHT22;28604;51.204;22.552;2024-03-25T01:26:20;3.20;92.00
42965;DHT22;28604;51.204;22.552;2024-03-25T01:28:46;3.30;92.00
42965;DHT22;28604;51.204;22.552;2024-03-25T01:31:12;3.30;92.20
42965;DHT22;28604;51.204;22.552;2024-03-25T01:33:37;3.30;92.10
42965;DHT22;28604;51.204;22.552;2024-03-25T01:36:04;3.30;91.90
42965;DHT22;28604;51.204;22.552;2024-03-25T01:38:29;3.30;92.10
42965;DHT22;28604;51.204;22.552;2024-03-25T01:40:55;3.30;91.70
42965;DHT22;28604;51.204;22.552;2024-03-25T01:43:32;3.30;91.80
42965;DHT22;28604;51.204;22.552;2024-03-25T01:45:58;3.30;92.00
42965;DHT22;28604;51.204;22.552;2024-03-25T01:48:24;3.20;91.80
42965;DHT22;28604;51.204;22.552;2024-03-25T01:50:50;3.30;92.00
42965;DHT22;28604;51.204;22.552;2024-03-25T01:53:16;3.30;91.80
42965;DHT22;28604;51.204;22.552;2024-03-25T01:55:42;3.30;91.90
42965;DHT22;28604;51.204;22.552;2024-03-25T01:58:08;3.30;92.30
42965;DHT22;28604;51.204;22.552;2024-03-25T02:03:24;3.30;91.90
42965;DHT22;28604;51.204;22.552;2024-03-25T02:05:50;3.30;92.00
42965;DHT22;28604;51.204;22.552;2024-03-25T02:08:18;3.30;91.90
42965;DHT22;28604;51.204;22.552;2024-03-25T02:10:45;3.30;91.70
42965;DHT22;28604;51.204;22.552;2024-03-25T02:13:10;3.30;91.80
42965;DHT22;28604;51.204;22.552;2024-03-25T02:15:36;3.20;92.10
42965;DHT22;28604;51.204;22.552;2024-03-25T02:18:02;3.20;91.60
42965;DHT22;28604;51.204;22.552;2024-03-25T02:20:28;3.20;91.60
42965;DHT22;28604;51.204;22.552;2024-03-25T02:34:03;3.20;91.70
42965;DHT22;28604;51.204;22.552;2024-03-25T02:36:29;3.10;91.60
42965;DHT22;28604;51.204;22.552;2024-03-25T02:38:55;3.10;91.80
42965;DHT22;28604;51.204;22.552;2024-03-25T02:41:21;3.10;92.00
42965;DHT22;28604;51.204;22.552;2024-03-25T02:43:49;3.20;91.90
42965;DHT22;28604;51.204;22.552;2024-03-25T02:46:15;3.20;92.10
42965;DHT22;28604;51.204;22.552;2024-03-25T02:48:41;3.20;92.00
42965;DHT22;28604;51.204;22.552;2024-03-25T02:51:07;3.20;91.80
42965;DHT22;28604;51.204;22.552;2024-03-25T02:53:33;3.20;91.80
42965;DHT22;28604;51.204;22.552;2024-03-25T02:55:59;3.20;91.80
42965;DHT22;28604;51.204;22.552;2024-03-25T02:58:25;3.20;91.80
42965;DHT22;28604;51.204;22.552;2024-03-25T03:00:51;3.20;91.60
42965;DHT22;28604;51.204;22.552;2024-03-25T03:03:17;3.20;91.80
42965;DHT22;28604;51.204;22.552;2024-03-25T03:05:43;3.20;92.00
42965;DHT22;28604;51.204;22.552;2024-03-25T03:08:09;3.20;92.00
42965;DHT22;28604;51.204;22.552;2024-03-25T03:10:35;3.20;91.70
42965;DHT22;28604;51.204;22.552;2024-03-25T03:13:00;3.20;91.70
42965;DHT22;28604;51.204;22.552;2024-03-25T03:15:26;3.20;91.90
42965;DHT22;28604;51.204;22.552;2024-03-25T03:17:52;3.20;91.60
42965;DHT22;28604;51.204;22.552;2024-03-25T03:20:18;3.20;91.90
42965;DHT22;28604;51.204;22.552;2024-03-25T03:22:44;3.20;91.50
42965;DHT22;28604;51.204;22.552;2024-03-25T03:25:10;3.20;91.50
42965;DHT22;28604;51.204;22.552;2024-03-25T03:27:35;3.20;91.60
42965;DHT22;28604;51.204;22.552;2024-03-25T03:30:01;3.20;91.70
42965;DHT22;28604;51.204;22.552;2024-03-25T03:32:27;3.20;91.70
42965;DHT22;28604;51.204;22.552;2024-03-25T03:34:53;3.20;92.00
42965;DHT22;28604;51.204;22.552;2024-03-25T03:37:19;3.20;92.00
42965;DHT22;28604;51.204;22.552;2024-03-25T03:39:45;3.30;92.00
42965;DHT22;28604;51.204;22.552;2024-03-25T03:42:11;3.30;91.70
42965;DHT22;28604;51.204;22.552;2024-03-25T03:44:36;3.20;92.00
42965;DHT22;28604;51.204;22.552;2024-03-25T03:47:02;3.20;91.80
42965;DHT22;28604;51.204;22.552;2024-03-25T03:49:28;3.30;91.60
42965;DHT22;28604;51.204;22.552;2024-03-25T03:51:54;3.30;91.80
42965;DHT22;28604;51.204;22.552;2024-03-25T03:54:20;3.30;92.00
42965;DHT22;28604;51.204;22.552;2024-03-25T03:56:45;3.30;91.60
42965;DHT22;28604;51.204;22.552;2024-03-25T03:59:11;3.30;91.70
42965;DHT22;28604;51.204;22.552;2024-03-25T04:01:37;3.30;91.50
42965;DHT22;28604;51.204;22.552;2024-03-25T04:04:03;3.40;91.60
42965;DHT22;28604;51.204;22.552;2024-03-25T04:06:30;3.40;91.70
42965;DHT22;28604;51.204;22.552;2024-03-25T04:08:56;3.40;91.90
42965;DHT22;28604;51.204;22.552;2024-03-25T04:11:22;3.40;91.70
42965;DHT22;28604;51.204;22.552;2024-03-25T04:13:48;3.40;91.90
42965;DHT22;28604;51.204;22.552;2024-03-25T04:16:14;3.40;91.80
42965;DHT22;28604;51.204;22.552;2024-03-25T04:18:40;3.40;91.90
42965;DHT22;28604;51.204;22.552;2024-03-25T04:21:11;3.40;91.90
42965;DHT22;28604;51.204;22.552;2024-03-25T04:23:37;3.40;92.00
42965;DHT22;28604;51.204;22.552;2024-03-25T04:26:03;3.40;91.60
42965;DHT22;28604;51.204;22.552;2024-03-25T04:28:31;3.40;91.50
42965;DHT22;28604;51.204;22.552;2024-03-25T04:30:57;3.40;91.80
42965;DHT22;28604;51.204;22.552;2024-03-25T04:33:23;3.40;91.40
42965;DHT22;28604;51.204;22.552;2024-03-25T04:35:49;3.40;91.40
42965;DHT22;28604;51.204;22.552;2024-03-25T04:38:18;3.40;91.70
42965;DHT22;28604;51.204;22.552;2024-03-25T04:40:43;3.30;91.90
42965;DHT22;28604;51.204;22.552;2024-03-25T04:43:10;3.30;91.90
42965;DHT22;28604;51.204;22.552;2024-03-25T04:45:35;3.30;91.90
42965;DHT22;28604;51.204;22.552;2024-03-25T04:48:01;3.30;91.90
42965;DHT22;28604;51.204;22.552;2024-03-25T04:50:27;3.30;91.90
42965;DHT22;28604;51.204;22.552;2024-03-25T04:52:53;3.30;92.00
42965;DHT22;28604;51.204;22.552;2024-03-25T04:55:19;3.30;92.10
42965;DHT22;28604;51.204;22.552;2024-03-25T04:57:47;3.30;91.90
42965;DHT22;28604;51.204;22.552;2024-03-25T05:00:13;3.30;91.90
42965;DHT22;28604;51.204;22.552;2024-03-25T05:02:39;3.20;91.90
42965;DHT22;28604;51.204;22.552;2024-03-25T05:05:04;3.30;92.20
42965;DHT22;28604;51.204;22.552;2024-03-25T05:07:31;3.30;92.60
42965;DHT22;28604;51.204;22.552;2024-03-25T05:09:56;3.30;92.50
42965;DHT22;28604;51.204;22.552;2024-03-25T05:12:22;3.30;92.30
42965;DHT22;28604;51.204;22.552;2024-03-25T05:14:48;3.30;92.20
42965;DHT22;28604;51.204;22.552;2024-03-25T05:17:14;3.30;91.90
42965;DHT22;28604;51.204;22.552;2024-03-25T05:19:39;3.40;92.00
42965;DHT22;28604;51.204;22.552;2024-03-25T05:22:05;3.40;91.90
42965;DHT22;28604;51.204;22.552;2024-03-25T05:24:31;3.40;92.40
42965;DHT22;28604;51.204;22.552;2024-03-25T05:26:58;3.40;92.10
42965;DHT22;28604;51.204;22.552;2024-03-25T05:29:24;3.40;91.80
42965;DHT22;28604;51.204;22.552;2024-03-25T05:31:56;3.50;91.60
42965;DHT22;28604;51.204;22.552;2024-03-25T05:34:23;3.50;91.50
42965;DHT22;28604;51.204;22.552;2024-03-25T05:36:48;3.50;91.30
42965;DHT22;28604;51.204;22.552;2024-03-25T05:39:14;3.60;91.30
42965;DHT22;28604;51.204;22.552;2024-03-25T05:41:40;3.60;91.30
42965;DHT22;28604;51.204;22.552;2024-03-25T05:44:06;3.70;92.10
42965;DHT22;28604;51.204;22.552;2024-03-25T05:46:32;3.70;91.50
42965;DHT22;28604;51.204;22.552;2024-03-25T05:49:00;3.70;91.70
42965;DHT22;28604;51.204;22.552;2024-03-25T05:51:26;3.80;91.30
42965;DHT22;28604;51.204;22.552;2024-03-25T05:53:52;3.90;91.40
42965;DHT22;28604;51.204;22.552;2024-03-25T05:56:19;4.00;91.70
42965;DHT22;28604;51.204;22.552;2024-03-25T05:58:44;4.20;91.70
42965;DHT22;28604;51.204;22.552;2024-03-25T06:01:11;4.40;91.90
42965;DHT22;28604;51.204;22.552;2024-03-25T06:03:37;4.80;92.00
42965;DHT22;28604;51.204;22.552;2024-03-25T06:06:03;5.30;91.70
42965;DHT22;28604;51.204;22.552;2024-03-25T06:08:28;5.90;91.20
42965;DHT22;28604;51.204;22.552;2024-03-25T06:11:00;6.40;91.00
42965;DHT22;28604;51.204;22.552;2024-03-25T06:13:26;7.00;90.00
42965;DHT22;28604;51.204;22.552;2024-03-25T06:15:52;7.50;89.60
42965;DHT22;28604;51.204;22.552;2024-03-25T06:18:21;8.00;88.60
42965;DHT22;28604;51.204;22.552;2024-03-25T06:20:48;8.50;86.30
42965;DHT22;28604;51.204;22.552;2024-03-25T06:23:24;8.90;85.10
42965;DHT22;28604;51.204;22.552;2024-03-25T06:25:50;9.40;84.10
42965;DHT22;28604;51.204;22.552;2024-03-25T06:28:16;9.90;84.00
42965;DHT22;28604;51.204;22.552;2024-03-25T06:30:42;10.30;82.20
42965;DHT22;28604;51.204;22.552;2024-03-25T06:33:27;10.70;82.00
42965;DHT22;28604;51.204;22.552;2024-03-25T06:36:11;11.10;79.60
42965;DHT22;28604;51.204;22.552;2024-03-25T06:38:37;11.40;78.40
42965;DHT22;28604;51.204;22.552;2024-03-25T06:41:03;11.70;76.80
42965;DHT22;28604;51.204;22.552;2024-03-25T06:43:29;12.00;77.50
42965;DHT22;28604;51.204;22.552;2024-03-25T06:45:55;12.30;76.30
42965;DHT22;28604;51.204;22.552;2024-03-25T06:48:21;12.60;75.70
42965;DHT22;28604;51.204;22.552;2024-03-25T06:50:54;13.00;74.00
42965;DHT22;28604;51.204;22.552;2024-03-25T06:53:21;13.20;74.30
42965;DHT22;28604;51.204;22.552;2024-03-25T06:55:51;13.60;72.60
42965;DHT22;28604;51.204;22.552;2024-03-25T06:58:18;13.90;71.30
42965;DHT22;28604;51.204;22.552;2024-03-25T07:00:44;14.10;70.00
42965;DHT22;28604;51.204;22.552;2024-03-25T07:03:09;14.40;71.50
42965;DHT22;28604;51.204;22.552;2024-03-25T07:05:35;14.60;69.00
42965;DHT22;28604;51.204;22.552;2024-03-25T07:08:01;14.90;68.70
42965;DHT22;28604;51.204;22.552;2024-03-25T07:10:28;14.90;70.00
42965;DHT22;28604;51.204;22.552;2024-03-25T07:12:53;15.10;65.80
42965;DHT22;28604;51.204;22.552;2024-03-25T07:15:19;15.10;66.20
42965;DHT22;28604;51.204;22.552;2024-03-25T07:17:45;15.20;65.80
42965;DHT22;28604;51.204;22.552;2024-03-25T07:20:20;15.20;65.80
42965;DHT22;28604;51.204;22.552;2024-03-25T07:22:48;15.30;65.60
42965;DHT22;28604;51.204;22.552;2024-03-25T07:25:14;15.30;66.50
42965;DHT22;28604;51.204;22.552;2024-03-25T07:27:40;15.40;65.90
42965;DHT22;28604;51.204;22.552;2024-03-25T07:30:06;15.50;66.40
42965;DHT22;28604;51.204;22.552;2024-03-25T07:32:33;15.60;66.50
42965;DHT22;28604;51.204;22.552;2024-03-25T07:34:58;15.70;66.20
42965;DHT22;28604;51.204;22.552;2024-03-25T07:37:24;15.80;65.10
42965;DHT22;28604;51.204;22.552;2024-03-25T07:39:50;15.90;65.80
42965;DHT22;28604;51.204;22.552;2024-03-25T07:42:17;16.00;65.40
42965;DHT22;28604;51.204;22.552;2024-03-25T07:44:44;16.10;66.30
42965;DHT22;28604;51.204;22.552;2024-03-25T07:47:09;16.20;65.80
42965;DHT22;28604;51.204;22.552;2024-03-25T07:49:36;16.30;64.80
42965;DHT22;28604;51.204;22.552;2024-03-25T07:52:02;16.40;65.20
42965;DHT22;28604;51.204;22.552;2024-03-25T07:54:28;16.50;63.60
42965;DHT22;28604;51.204;22.552;2024-03-25T07:56:53;16.60;63.20
42965;DHT22;28604;51.204;22.552;2024-03-25T07:59:19;16.90;62.20
42965;DHT22;28604;51.204;22.552;2024-03-25T08:01:45;17.10;62.30
42965;DHT22;28604;51.204;22.552;2024-03-25T08:04:11;17.30;61.50
42965;DHT22;28604;51.204;22.552;2024-03-25T08:06:37;17.40;60.70
42965;DHT22;28604;51.204;22.552;2024-03-25T08:09:03;17.60;61.50
42965;DHT22;28604;51.204;22.552;2024-03-25T08:11:31;17.80;60.00
42965;DHT22;28604;51.204;22.552;2024-03-25T08:13:58;17.80;61.10
42965;DHT22;28604;51.204;22.552;2024-03-25T08:16:23;17.60;58.80
42965;DHT22;28604;51.204;22.552;2024-03-25T08:18:49;17.30;59.80
42965;DHT22;28604;51.204;22.552;2024-03-25T08:21:16;16.90;60.60
42965;DHT22;28604;51.204;22.552;2024-03-25T08:23:45;16.60;59.80
42965;DHT22;28604;51.204;22.552;2024-03-25T08:26:11;16.30;61.10
42965;DHT22;28604;51.204;22.552;2024-03-25T08:28:37;16.20;61.30
42965;DHT22;28604;51.204;22.552;2024-03-25T08:31:05;16.10;60.90
42965;DHT22;28604;51.204;22.552;2024-03-25T08:33:31;16.30;60.60
42965;DHT22;28604;51.204;22.552;2024-03-25T08:35:57;16.60;62.70
42965;DHT22;28604;51.204;22.552;2024-03-25T08:38:23;16.80;60.60
42965;DHT22;28604;51.204;22.552;2024-03-25T08:40:48;17.10;59.60
42965;DHT22;28604;51.204;22.552;2024-03-25T08:43:14;17.20;58.30
42965;DHT22;28604;51.204;22.552;2024-03-25T08:45:41;17.50;59.90
42965;DHT22;28604;51.204;22.552;2024-03-25T08:48:07;17.60;58.60
42965;DHT22;28604;51.204;22.552;2024-03-25T08:50:33;17.70;57.90
42965;DHT22;28604;51.204;22.552;2024-03-25T08:52:59;18.00;57.80
42965;DHT22;28604;51.204;22.552;2024-03-25T08:55:25;18.10;56.60
42965;DHT22;28604;51.204;22.552;2024-03-25T08:57:51;18.30;55.90
42965;DHT22;28604;51.204;22.552;2024-03-25T09:00:17;18.50;55.10
42965;DHT22;28604;51.204;22.552;2024-03-25T09:02:44;18.60;56.60
42965;DHT22;28604;51.204;22.552;2024-03-25T09:05:09;18.70;57.60
42965;DHT22;28604;51.204;22.552;2024-03-25T09:07:36;18.70;54.80
42965;DHT22;28604;51.204;22.552;2024-03-25T09:10:02;18.70;56.10
42965;DHT22;28604;51.204;22.552;2024-03-25T09:12:46;18.60;54.60
42965;DHT22;28604;51.204;22.552;2024-03-25T09:15:12;18.60;55.70
42965;DHT22;28604;51.204;22.552;2024-03-25T09:17:40;18.60;55.70
42965;DHT22;28604;51.204;22.552;2024-03-25T09:20:06;18.60;55.20
42965;DHT22;28604;51.204;22.552;2024-03-25T09:22:43;18.70;56.90
42965;DHT22;28604;51.204;22.552;2024-03-25T09:25:08;18.70;54.10
42965;DHT22;28604;51.204;22.552;2024-03-25T09:27:34;18.90;55.00
42965;DHT22;28604;51.204;22.552;2024-03-25T09:30:00;19.10;56.10
42965;DHT22;28604;51.204;22.552;2024-03-25T09:32:26;19.20;56.00
42965;DHT22;28604;51.204;22.552;2024-03-25T09:34:52;19.40;56.40
42965;DHT22;28604;51.204;22.552;2024-03-25T09:37:18;19.40;55.30
42965;DHT22;28604;51.204;22.552;2024-03-25T09:39:44;19.40;53.10
42965;DHT22;28604;51.204;22.552;2024-03-25T09:42:11;19.30;54.00
42965;DHT22;28604;51.204;22.552;2024-03-25T09:44:39;19.20;54.90
42965;DHT22;28604;51.204;22.552;2024-03-25T09:47:05;19.10;54.90
42965;DHT22;28604;51.204;22.552;2024-03-25T09:49:32;19.10;55.10
42965;DHT22;28604;51.204;22.552;2024-03-25T09:52:00;19.10;54.80
42965;DHT22;28604;51.204;22.552;2024-03-25T09:54:28;19.10;54.30
42965;DHT22;28604;51.204;22.552;2024-03-25T09:56:53;19.00;52.60
42965;DHT22;28604;51.204;22.552;2024-03-25T09:59:19;18.90;55.10
42965;DHT22;28604;51.204;22.552;2024-03-25T10:01:45;18.60;54.20
42965;DHT22;28604;51.204;22.552;2024-03-25T10:04:11;18.40;54.30
42965;DHT22;28604;51.204;22.552;2024-03-25T10:06:39;18.30;55.90
42965;DHT22;28604;51.204;22.552;2024-03-25T10:09:05;18.00;54.70
42965;DHT22;28604;51.204;22.552;2024-03-25T10:11:34;17.80;56.40
42965;DHT22;28604;51.204;22.552;2024-03-25T10:14:01;17.40;54.30
42965;DHT22;28604;51.204;22.552;2024-03-25T10:16:27;17.10;54.40
42965;DHT22;28604;51.204;22.552;2024-03-25T10:18:53;16.90;56.00
42965;DHT22;28604;51.204;22.552;2024-03-25T10:21:20;16.90;57.30
42965;DHT22;28604;51.204;22.552;2024-03-25T10:23:46;16.80;56.70
42965;DHT22;28604;51.204;22.552;2024-03-25T10:26:25;16.70;55.80
42965;DHT22;28604;51.204;22.552;2024-03-25T10:28:58;16.60;55.60
42965;DHT22;28604;51.204;22.552;2024-03-25T10:31:24;16.60;58.00
42965;DHT22;28604;51.204;22.552;2024-03-25T10:33:50;16.40;57.90
42965;DHT22;28604;51.204;22.552;2024-03-25T10:36:16;16.20;56.90
42965;DHT22;28604;51.204;22.552;2024-03-25T10:38:42;16.00;58.00
42965;DHT22;28604;51.204;22.552;2024-03-25T10:41:09;15.90;59.80
42965;DHT22;28604;51.204;22.552;2024-03-25T10:43:36;15.90;59.20
42965;DHT22;28604;51.204;22.552;2024-03-25T10:46:03;15.80;58.70
42965;DHT22;28604;51.204;22.552;2024-03-25T10:48:35;15.70;56.60
42965;DHT22;28604;51.204;22.552;2024-03-25T10:51:02;15.60;58.90
42965;DHT22;28604;51.204;22.552;2024-03-25T10:53:29;15.50;59.40
42965;DHT22;28604;51.204;22.552;2024-03-25T10:55:55;15.60;60.20
42965;DHT22;28604;51.204;22.552;2024-03-25T10:58:22;15.60;59.20
42965;DHT22;28604;51.204;22.552;2024-03-25T11:00:48;15.60;58.50
42965;DHT22;28604;51.204;22.552;2024-03-25T11:03:14;15.70;58.30
42965;DHT22;28604;51.204;22.552;2024-03-25T11:05:40;15.60;57.70
42965;DHT22;28604;51.204;22.552;2024-03-25T11:08:13;15.50;57.90
42965;DHT22;28604;51.204;22.552;2024-03-25T11:10:45;15.30;58.80
42965;DHT22;28604;51.204;22.552;2024-03-25T11:13:14;15.20;60.00
42965;DHT22;28604;51.204;22.552;2024-03-25T11:15:42;15.00;60.40
42965;DHT22;28604;51.204;22.552;2024-03-25T11:18:16;14.90;59.90
42965;DHT22;28604;51.204;22.552;2024-03-25T11:20:42;14.80;59.90
42965;DHT22;28604;51.204;22.552;2024-03-25T11:23:12;14.70;62.10
42965;DHT22;28604;51.204;22.552;2024-03-25T11:25:38;14.50;61.60
42965;DHT22;28604;51.204;22.552;2024-03-25T11:28:04;14.60;62.40
42965;DHT22;28604;51.204;22.552;2024-03-25T11:30:30;14.50;62.40
42965;DHT22;28604;51.204;22.552;2024-03-25T11:32:57;14.50;61.70
42965;DHT22;28604;51.204;22.552;2024-03-25T11:35:24;14.50;61.20
42965;DHT22;28604;51.204;22.552;2024-03-25T11:37:50;14.50;61.60
42965;DHT22;28604;51.204;22.552;2024-03-25T11:40:18;14.60;61.80
42965;DHT22;28604;51.204;22.552;2024-03-25T11:42:45;14.70;61.70
42965;DHT22;28604;51.204;22.552;2024-03-25T11:45:15;14.70;61.40
42965;DHT22;28604;51.204;22.552;2024-03-25T11:47:42;14.60;62.10
42965;DHT22;28604;51.204;22.552;2024-03-25T11:50:08;14.60;60.80
42965;DHT22;28604;51.204;22.552;2024-03-25T11:52:34;14.40;60.60
42965;DHT22;28604;51.204;22.552;2024-03-25T11:55:00;14.40;61.90
42965;DHT22;28604;51.204;22.552;2024-03-25T11:57:27;14.30;64.20
42965;DHT22;28604;51.204;22.552;2024-03-25T11:59:53;14.20;62.80
42965;DHT22;28604;51.204;22.552;2024-03-25T12:02:19;14.10;63.90
42965;DHT22;28604;51.204;22.552;2024-03-25T12:04:45;13.90;62.90
42965;DHT22;28604;51.204;22.552;2024-03-25T12:07:11;13.80;63.60
42965;DHT22;28604;51.204;22.552;2024-03-25T12:09:37;13.70;63.70
42965;DHT22;28604;51.204;22.552;2024-03-25T12:12:22;13.50;63.70
42965;DHT22;28604;51.204;22.552;2024-03-25T12:14:48;13.20;65.60
42965;DHT22;28604;51.204;22.552;2024-03-25T12:17:14;12.90;67.60
42965;DHT22;28604;51.204;22.552;2024-03-25T12:19:44;12.50;72.50
42965;DHT22;28604;51.204;22.552;2024-03-25T12:22:10;12.10;72.50
42965;DHT22;28604;51.204;22.552;2024-03-25T12:24:36;11.60;74.30
42965;DHT22;28604;51.204;22.552;2024-03-25T12:27:02;11.20;76.40
42965;DHT22;28604;51.204;22.552;2024-03-25T12:29:28;10.90;77.40
42965;DHT22;28604;51.204;22.552;2024-03-25T12:31:55;10.60;79.20
42965;DHT22;28604;51.204;22.552;2024-03-25T12:34:22;10.40;77.00
42965;DHT22;28604;51.204;22.552;2024-03-25T12:36:48;10.20;78.20
42965;DHT22;28604;51.204;22.552;2024-03-25T12:39:20;10.20;77.30
42965;DHT22;28604;51.204;22.552;2024-03-25T12:41:46;10.10;78.40
42965;DHT22;28604;51.204;22.552;2024-03-25T12:44:12;10.10;78.90
42965;DHT22;28604;51.204;22.552;2024-03-25T12:46:38;10.10;79.00
42965;DHT22;28604;51.204;22.552;2024-03-25T12:49:05;10.20;81.70
42965;DHT22;28604;51.204;22.552;2024-03-25T12:51:32;10.30;80.00
42965;DHT22;28604;51.204;22.552;2024-03-25T12:53:58;10.40;82.20
42965;DHT22;28604;51.204;22.552;2024-03-25T12:56:24;10.60;81.30
42965;DHT22;28604;51.204;22.552;2024-03-25T12:58:50;10.80;82.70
42965;DHT22;28604;51.204;22.552;2024-03-25T13:01:16;11.00;81.80
42965;DHT22;28604;51.204;22.552;2024-03-25T13:03:42;11.10;81.50
42965;DHT22;28604;51.204;22.552;2024-03-25T13:06:08;11.20;79.00
42965;DHT22;28604;51.204;22.552;2024-03-25T13:08:33;11.30;82.70
42965;DHT22;28604;51.204;22.552;2024-03-25T13:10:59;11.50;81.70
42965;DHT22;28604;51.204;22.552;2024-03-25T13:13:25;11.50;81.70
42965;DHT22;28604;51.204;22.552;2024-03-25T13:15:51;11.60;80.00
42965;DHT22;28604;51.204;22.552;2024-03-25T13:18:17;11.70;79.90
42965;DHT22;28604;51.204;22.552;2024-03-25T13:20:43;11.80;78.40
42965;DHT22;28604;51.204;22.552;2024-03-25T13:23:09;11.80;77.60
42965;DHT22;28604;51.204;22.552;2024-03-25T13:25:35;11.90;75.60
42965;DHT22;28604;51.204;22.552;2024-03-25T13:28:01;11.80;78.00
42965;DHT22;28604;51.204;22.552;2024-03-25T13:30:27;11.80;79.00
42965;DHT22;28604;51.204;22.552;2024-03-25T13:32:52;11.80;78.60
42965;DHT22;28604;51.204;22.552;2024-03-25T13:35:18;11.80;79.50
42965;DHT22;28604;51.204;22.552;2024-03-25T13:37:44;11.80;78.50
42965;DHT22;28604;51.204;22.552;2024-03-25T13:40:10;11.80;79.20
42965;DHT22;28604;51.204;22.552;2024-03-25T13:42:37;11.80;76.30
42965;DHT22;28604;51.204;22.552;2024-03-25T13:45:03;11.80;76.20
42965;DHT22;28604;51.204;22.552;2024-03-25T13:47:29;11.90;75.80
42965;DHT22;28604;51.204;22.552;2024-03-25T13:52:27;12.10;76.20
42965;DHT22;28604;51.204;22.552;2024-03-25T13:54:53;12.20;76.60
42965;DHT22;28604;51.204;22.552;2024-03-25T13:57:19;12.40;76.30
42965;DHT22;28604;51.204;22.552;2024-03-25T13:59:45;12.60;74.60
42965;DHT22;28604;51.204;22.552;2024-03-25T14:02:11;12.60;74.50
42965;DHT22;28604;51.204;22.552;2024-03-25T14:04:37;12.70;73.50
42965;DHT22;28604;51.204;22.552;2024-03-25T14:07:02;12.70;72.50
42965;DHT22;28604;51.204;22.552;2024-03-25T14:09:28;12.80;72.60
42965;DHT22;28604;51.204;22.552;2024-03-25T14:11:54;12.90;71.30
42965;DHT22;28604;51.204;22.552;2024-03-25T14:14:20;13.00;70.80
42965;DHT22;28604;51.204;22.552;2024-03-25T14:16:46;13.00;71.00
42965;DHT22;28604;51.204;22.552;2024-03-25T14:19:12;13.10;69.40
42965;DHT22;28604;51.204;22.552;2024-03-25T14:21:38;13.20;68.20
42965;DHT22;28604;51.204;22.552;2024-03-25T14:24:04;13.20;69.50
42965;DHT22;28604;51.204;22.552;2024-03-25T14:26:30;13.20;69.70
42965;DHT22;28604;51.204;22.552;2024-03-25T14:28:57;13.20;69.50
42965;DHT22;28604;51.204;22.552;2024-03-25T14:31:22;13.30;67.90
42965;DHT22;28604;51.204;22.552;2024-03-25T14:33:48;13.20;67.00
42965;DHT22;28604;51.204;22.552;2024-03-25T14:36:14;13.20;66.70
42965;DHT22;28604;51.204;22.552;2024-03-25T14:38:40;13.10;67.00
42965;DHT22;28604;51.204;22.552;2024-03-25T14:41:06;13.10;66.10
42965;DHT22;28604;51.204;22.552;2024-03-25T14:43:32;12.90;67.40
42965;DHT22;28604;51.204;22.552;2024-03-25T14:45:58;12.80;66.40
42965;DHT22;28604;51.204;22.552;2024-03-25T14:48:24;12.70;67.20
42965;DHT22;28604;51.204;22.552;2024-03-25T14:50:50;12.60;68.30
42965;DHT22;28604;51.204;22.552;2024-03-25T14:53:16;12.50;68.90
42965;DHT22;28604;51.204;22.552;2024-03-25T14:55:42;12.40;68.80
42965;DHT22;28604;51.204;22.552;2024-03-25T14:58:08;12.30;69.00
42965;DHT22;28604;51.204;22.552;2024-03-25T15:00:33;12.20;70.10
42965;DHT22;28604;51.204;22.552;2024-03-25T15:02:59;12.10;68.90
42965;DHT22;28604;51.204;22.552;2024-03-25T15:05:26;12.00;69.30
42965;DHT22;28604;51.204;22.552;2024-03-25T15:07:52;12.00;70.70
42965;DHT22;28604;51.204;22.552;2024-03-25T15:10:17;11.90;69.60
42965;DHT22;28604;51.204;22.552;2024-03-25T15:12:45;11.80;69.90
42965;DHT22;28604;51.204;22.552;2024-03-25T15:15:11;11.70;70.40
42965;DHT22;28604;51.204;22.552;2024-03-25T15:17:37;11.60;70.30
42965;DHT22;28604;51.204;22.552;2024-03-25T15:20:05;11.50;70.00
42965;DHT22;28604;51.204;22.552;2024-03-25T15:22:32;11.50;70.70
42965;DHT22;28604;51.204;22.552;2024-03-25T15:24:57;11.40;70.40
42965;DHT22;28604;51.204;22.552;2024-03-25T15:27:23;11.30;71.90
42965;DHT22;28604;51.204;22.552;2024-03-25T15:29:49;11.20;74.00
42965;DHT22;28604;51.204;22.552;2024-03-25T15:32:15;11.00;74.70
42965;DHT22;28604;51.204;22.552;2024-03-25T15:34:41;10.90;76.10